createdAt,value
2017-06-28T00:02:14.369Z,23.20
2017-06-28T00:04:43.425Z,23.20
2017-06-28T00:07:11.670Z,23.20
2017-06-28T00:09:39.903Z,23.20
2017-06-28T00:12:08.926Z,23.10
2017-06-28T00:14:37.164Z,23.10
2017-06-28T00:17:06.186Z,23.10
2017-06-28T00:19:34.434Z,23.00
2017-06-28T00:22:02.757Z,23.00
2017-06-28T00:24:30.992Z,23.00
2017-06-28T00:27:00.125Z,22.90
2017-06-28T00:29:28.478Z,22.90
2017-06-28T00:31:56.728Z,22.90
2017-06-28T00:34:24.970Z,22.90
2017-06-28T00:36:53.329Z,22.90
2017-06-28T00:39:21.636Z,22.90
2017-06-28T00:41:49.889Z,22.80
2017-06-28T00:44:18.125Z,22.80
2017-06-28T00:46:47.252Z,22.80
2017-06-28T00:49:15.508Z,22.80
2017-06-28T00:51:43.753Z,22.80
2017-06-28T00:54:11.998Z,22.80
2017-06-28T00:56:40.427Z,22.70
2017-06-28T00:59:09.425Z,22.70
2017-06-28T01:01:37.683Z,22.70
2017-06-28T01:04:06.694Z,22.70
2017-06-28T01:06:35.689Z,22.80
2017-06-28T01:09:03.942Z,22.70
2017-06-28T01:11:32.944Z,22.80
2017-06-28T01:14:01.965Z,22.80
2017-06-28T01:16:30.204Z,22.80
2017-06-28T01:18:59.225Z,22.80
2017-06-28T01:21:27.521Z,22.80
2017-06-28T01:23:55.769Z,22.90
2017-06-28T01:26:24.009Z,22.80
2017-06-28T01:28:52.261Z,22.80
2017-06-28T01:31:20.614Z,22.80
2017-06-28T01:33:48.862Z,22.80
2017-06-28T01:36:17.185Z,22.80
2017-06-28T01:38:45.439Z,22.80
2017-06-28T01:41:13.716Z,22.70
2017-06-28T01:43:42.029Z,22.70
2017-06-28T01:46:10.370Z,22.60
2017-06-28T01:48:38.626Z,22.60
2017-06-28T01:51:06.864Z,22.70
2017-06-28T01:53:35.105Z,22.70
2017-06-28T01:56:03.439Z,22.60
2017-06-28T01:58:32.458Z,22.60
2017-06-28T02:01:00.688Z,22.60
2017-06-28T02:03:28.937Z,22.50
2017-06-28T02:05:57.169Z,22.60
2017-06-28T02:08:25.419Z,22.60
2017-06-28T02:10:53.661Z,22.60
2017-06-28T02:13:21.933Z,22.50
2017-06-28T02:15:50.178Z,22.50
2017-06-28T02:18:18.478Z,22.50
2017-06-28T02:20:46.845Z,22.40
2017-06-28T02:23:15.117Z,22.40
2017-06-28T02:25:43.374Z,22.30
2017-06-28T02:28:11.679Z,22.30
2017-06-28T02:30:40.009Z,22.30
2017-06-28T02:33:09.070Z,22.30
2017-06-28T02:35:37.338Z,22.30
2017-06-28T02:38:05.641Z,22.30
2017-06-28T02:40:33.965Z,22.20
2017-06-28T02:43:02.214Z,22.30
2017-06-28T02:45:31.245Z,22.20
2017-06-28T02:47:59.521Z,22.20
2017-06-28T02:50:27.761Z,22.00
2017-06-28T02:52:56.776Z,22.00
2017-06-28T02:55:25.018Z,22.00
2017-06-28T02:57:54.041Z,22.10
2017-06-28T03:00:22.278Z,22.10
2017-06-28T03:02:51.317Z,22.00
2017-06-28T03:05:19.638Z,22.00
2017-06-28T03:07:47.863Z,22.00
2017-06-28T03:10:16.109Z,22.00
2017-06-28T03:12:45.137Z,21.90
2017-06-28T03:15:13.377Z,21.80
2017-06-28T03:17:42.512Z,21.90
2017-06-28T03:20:10.752Z,21.90
2017-06-28T03:22:39.056Z,22.00
2017-06-28T03:25:07.357Z,22.00
2017-06-28T03:27:35.674Z,22.00
2017-06-28T03:30:04.814Z,21.90
2017-06-28T03:32:33.037Z,21.90
2017-06-28T03:35:02.057Z,22.00
2017-06-28T03:37:30.300Z,22.00
2017-06-28T03:39:59.324Z,22.10
2017-06-28T03:42:27.814Z,22.00
2017-06-28T03:44:56.066Z,22.10
2017-06-28T03:47:25.073Z,22.00
2017-06-28T03:49:53.326Z,22.00
2017-06-28T03:52:22.325Z,22.00
2017-06-28T03:54:50.585Z,22.00
2017-06-28T03:57:19.589Z,21.90
2017-06-28T03:59:48.723Z,21.80
2017-06-28T04:02:16.962Z,21.80
2017-06-28T04:04:46.006Z,21.70
2017-06-28T04:07:14.261Z,21.70
2017-06-28T04:09:43.117Z,21.70
2017-06-28T04:12:11.329Z,21.70
2017-06-28T04:14:39.581Z,21.70
2017-06-28T04:17:07.823Z,21.70
2017-06-28T04:19:36.088Z,21.70
2017-06-28T04:22:04.334Z,21.80
2017-06-28T04:24:32.582Z,21.80
2017-06-28T04:27:00.873Z,21.80
2017-06-28T04:29:29.145Z,21.80
2017-06-28T04:31:57.393Z,21.80
2017-06-28T04:34:26.417Z,21.80
2017-06-28T04:36:54.667Z,21.80
2017-06-28T04:39:22.985Z,21.80
2017-06-28T04:41:51.237Z,21.70
2017-06-28T04:44:19.472Z,21.70
2017-06-28T04:46:47.846Z,21.70
2017-06-28T04:49:16.061Z,21.70
2017-06-28T04:51:44.374Z,21.70
2017-06-28T04:54:12.609Z,21.60
2017-06-28T04:56:40.948Z,21.60
2017-06-28T04:59:09.277Z,21.50
2017-06-28T05:01:37.561Z,21.40
2017-06-28T05:04:05.808Z,21.30
2017-06-28T05:06:34.141Z,21.30
2017-06-28T05:09:02.377Z,21.20
2017-06-28T05:11:30.664Z,21.30
2017-06-28T05:13:58.899Z,21.40
2017-06-28T05:16:27.154Z,21.40
2017-06-28T05:18:56.173Z,21.50
2017-06-28T05:21:25.468Z,21.40
2017-06-28T05:23:53.926Z,21.50
2017-06-28T05:26:22.158Z,21.60
2017-06-28T05:28:50.402Z,21.60
2017-06-28T05:31:18.658Z,21.60
2017-06-28T05:33:47.009Z,21.60
2017-06-28T05:36:15.254Z,21.60
2017-06-28T05:38:43.513Z,21.60
2017-06-28T05:41:11.782Z,21.60
2017-06-28T05:43:40.253Z,21.60
2017-06-28T05:46:09.265Z,21.60
2017-06-28T05:48:37.560Z,21.60
2017-06-28T05:51:06.986Z,21.60
2017-06-28T05:53:35.244Z,21.60
2017-06-28T05:56:03.668Z,21.70
2017-06-28T05:58:31.924Z,21.70
2017-06-28T06:01:00.179Z,21.70
2017-06-28T06:03:28.442Z,21.70
2017-06-28T06:05:56.687Z,21.80
2017-06-28T06:08:24.961Z,21.80
2017-06-28T06:10:53.197Z,21.70
2017-06-28T06:13:21.478Z,21.70
2017-06-28T06:15:50.533Z,21.50
2017-06-28T06:18:18.805Z,21.50
2017-06-28T06:20:47.051Z,21.40
2017-06-28T06:23:15.306Z,21.40
2017-06-28T06:25:44.313Z,21.30
2017-06-28T06:28:13.416Z,21.30
2017-06-28T06:30:41.658Z,21.30
2017-06-28T06:33:09.917Z,21.30
2017-06-28T06:35:38.178Z,21.30
2017-06-28T06:38:06.413Z,21.20
2017-06-28T06:40:34.681Z,21.30
2017-06-28T06:43:03.690Z,21.20
2017-06-28T06:45:32.000Z,21.20
2017-06-28T06:48:00.318Z,21.20
2017-06-28T06:50:28.644Z,21.10
2017-06-28T06:52:56.882Z,21.20
2017-06-28T06:55:25.953Z,21.10
2017-06-28T06:57:54.196Z,21.10
2017-06-28T07:00:23.373Z,21.10
2017-06-28T07:02:51.686Z,21.10
2017-06-28T07:05:19.950Z,21.00
2017-06-28T07:07:48.181Z,21.00
2017-06-28T07:10:16.533Z,21.00
2017-06-28T07:12:44.858Z,21.00
2017-06-28T07:15:13.105Z,20.90
2017-06-28T07:17:41.434Z,20.90
2017-06-28T07:20:09.687Z,20.80
2017-06-28T07:22:38.016Z,20.70
2017-06-28T07:25:07.038Z,20.70
2017-06-28T07:27:35.338Z,20.70
2017-06-28T07:30:03.668Z,20.70
2017-06-28T07:32:32.661Z,20.60
2017-06-28T07:35:01.677Z,20.60
2017-06-28T07:37:29.927Z,20.60
2017-06-28T07:39:58.173Z,20.60
2017-06-28T07:42:26.405Z,20.60
2017-06-28T07:44:54.737Z,20.60
2017-06-28T07:47:22.984Z,20.60
2017-06-28T07:49:51.217Z,20.60
2017-06-28T07:52:19.475Z,20.50
2017-06-28T07:54:48.482Z,20.50
2017-06-28T07:57:17.608Z,20.50
2017-06-28T07:59:45.841Z,20.50
2017-06-28T08:02:14.866Z,20.50
2017-06-28T08:04:43.096Z,20.60
2017-06-28T08:07:11.352Z,20.60
2017-06-28T08:09:39.586Z,20.60
2017-06-28T08:12:07.850Z,20.60
2017-06-28T08:14:36.100Z,20.60
2017-06-28T08:17:04.345Z,20.50
2017-06-28T08:19:32.643Z,20.50
2017-06-28T08:22:00.897Z,20.40
2017-06-28T08:24:29.134Z,20.40
2017-06-28T08:26:57.398Z,20.30
2017-06-28T08:29:25.658Z,20.40
2017-06-28T08:31:53.897Z,20.40
2017-06-28T08:34:22.132Z,20.40
2017-06-28T08:36:50.407Z,20.40
2017-06-28T08:39:19.413Z,20.30
2017-06-28T08:41:47.661Z,20.30
2017-06-28T08:44:16.677Z,20.30
2017-06-28T08:46:44.966Z,20.30
2017-06-28T08:49:13.213Z,20.40
2017-06-28T08:51:41.448Z,20.40
2017-06-28T08:54:09.706Z,20.50
2017-06-28T08:56:37.975Z,20.50
2017-06-28T08:59:06.341Z,20.60
2017-06-28T09:01:34.653Z,20.80
2017-06-28T09:04:02.904Z,20.90
2017-06-28T09:06:31.143Z,21.10
2017-06-28T09:08:59.473Z,21.20
2017-06-28T09:11:27.743Z,21.20
2017-06-28T09:13:55.994Z,21.30
2017-06-28T09:16:24.229Z,21.30
2017-06-28T09:18:53.286Z,21.40
2017-06-28T09:21:21.590Z,21.40
2017-06-28T09:23:49.925Z,21.50
2017-06-28T09:26:18.169Z,21.50
2017-06-28T09:28:46.472Z,21.30
2017-06-28T09:31:14.769Z,21.30
2017-06-28T09:33:43.026Z,21.30
2017-06-28T09:36:11.262Z,21.30
2017-06-28T09:38:39.506Z,21.30
2017-06-28T09:41:07.777Z,21.30
2017-06-28T09:43:36.034Z,21.40
2017-06-28T09:46:04.398Z,21.50
2017-06-28T09:48:32.669Z,21.60
2017-06-28T09:51:01.054Z,21.70
2017-06-28T09:53:29.322Z,21.80
2017-06-28T09:55:57.573Z,21.90
2017-06-28T09:58:25.811Z,22.00
2017-06-28T10:00:54.154Z,22.10
2017-06-28T10:03:22.394Z,22.10
2017-06-28T10:05:51.423Z,22.10
2017-06-28T10:08:19.709Z,22.10
2017-06-28T10:10:47.962Z,22.10
2017-06-28T10:13:16.199Z,22.10
2017-06-28T10:15:45.241Z,22.00
2017-06-28T10:18:13.481Z,22.00
2017-06-28T10:20:42.493Z,21.90
2017-06-28T10:23:10.777Z,21.90
2017-06-28T10:25:39.051Z,21.90
2017-06-28T10:28:07.287Z,21.80
2017-06-28T10:30:36.427Z,21.70
2017-06-28T10:33:04.664Z,21.70
2017-06-28T10:35:33.693Z,21.70
2017-06-28T10:38:01.969Z,21.70
2017-06-28T10:40:30.222Z,21.60
2017-06-28T10:42:58.541Z,21.50
2017-06-28T10:45:26.798Z,21.40
2017-06-28T10:47:55.057Z,21.30
2017-06-28T10:50:23.372Z,21.10
2017-06-28T10:52:51.637Z,20.90
2017-06-28T10:55:20.001Z,20.80
2017-06-28T10:57:48.279Z,20.70
2017-06-28T11:00:16.517Z,20.70
2017-06-28T11:02:45.538Z,20.90
2017-06-28T11:05:13.783Z,20.90
2017-06-28T11:07:42.802Z,21.00
2017-06-28T11:10:11.048Z,21.00
2017-06-28T11:12:40.065Z,21.20
2017-06-28T11:15:08.289Z,21.20
2017-06-28T11:17:36.533Z,21.30
2017-06-28T11:20:04.819Z,21.50
2017-06-28T11:22:33.074Z,21.60
2017-06-28T11:25:01.373Z,21.70
2017-06-28T11:27:29.697Z,21.80
2017-06-28T11:29:58.700Z,22.40
2017-06-28T11:32:26.973Z,22.40
2017-06-28T11:34:55.285Z,22.70
2017-06-28T11:37:23.554Z,22.60
2017-06-28T11:39:51.854Z,22.40
2017-06-28T11:42:20.165Z,22.30
2017-06-28T11:44:49.186Z,22.10
2017-06-28T11:47:17.442Z,22.00
2017-06-28T11:49:46.581Z,21.70
2017-06-28T11:52:14.910Z,21.70
2017-06-28T11:54:44.044Z,21.70
2017-06-28T11:57:12.273Z,21.70
2017-06-28T11:59:41.289Z,23.10
2017-06-28T12:02:09.534Z,23.10
2017-06-28T12:04:37.787Z,23.60
2017-06-28T12:07:06.040Z,23.80
2017-06-28T12:09:34.289Z,23.80
2017-06-28T12:12:02.605Z,23.80
2017-06-28T12:14:30.908Z,23.90
2017-06-28T12:16:59.137Z,24.00
2017-06-28T12:19:27.468Z,24.10
2017-06-28T12:21:56.553Z,24.40
2017-06-28T12:24:24.813Z,24.40
2017-06-28T12:26:53.046Z,24.40
2017-06-28T12:29:21.295Z,24.50
2017-06-28T12:31:50.289Z,24.80
2017-06-28T12:34:19.301Z,24.90
2017-06-28T12:36:47.737Z,24.90
2017-06-28T12:39:16.005Z,24.80
2017-06-28T12:41:44.244Z,24.50
2017-06-28T12:44:12.498Z,24.40
2017-06-28T12:46:40.745Z,24.20
2017-06-28T12:49:09.069Z,24.40
2017-06-28T12:51:37.325Z,24.70
2017-06-28T12:54:05.574Z,24.80
2017-06-28T12:56:34.601Z,24.60
2017-06-28T12:59:02.924Z,24.60
2017-06-28T13:01:31.168Z,24.20
2017-06-28T13:03:59.409Z,23.90
2017-06-28T13:06:28.541Z,24.00
2017-06-28T13:08:56.814Z,24.00
2017-06-28T13:11:25.065Z,24.50
2017-06-28T13:13:53.301Z,24.70
2017-06-28T13:16:21.572Z,24.80
2017-06-28T13:18:49.809Z,24.60
2017-06-28T13:21:18.060Z,24.30
2017-06-28T13:23:46.306Z,24.00
2017-06-28T13:26:14.569Z,23.70
2017-06-28T13:28:42.918Z,23.50
2017-06-28T13:31:11.181Z,22.90
2017-06-28T13:33:39.441Z,22.50
2017-06-28T13:36:08.449Z,22.50
2017-06-28T13:38:36.681Z,22.50
2017-06-28T13:41:05.705Z,22.50
2017-06-28T13:43:33.939Z,22.50
2017-06-28T13:46:02.201Z,22.50
2017-06-28T13:48:30.440Z,22.50
2017-06-28T13:50:58.673Z,22.60
2017-06-28T13:53:27.754Z,22.70
2017-06-28T13:55:56.093Z,22.70
2017-06-28T13:58:24.413Z,22.70
2017-06-28T14:00:52.615Z,22.80
2017-06-28T14:03:21.637Z,22.60
2017-06-28T14:05:49.871Z,22.60
2017-06-28T14:08:18.924Z,22.50
2017-06-28T14:10:47.176Z,22.50
2017-06-28T14:13:15.433Z,22.60
2017-06-28T14:15:43.675Z,22.60
2017-06-28T14:18:11.957Z,22.60
2017-06-28T14:20:40.985Z,22.70
2017-06-28T14:23:09.234Z,22.70
2017-06-28T14:25:38.234Z,22.70
2017-06-28T14:28:06.505Z,22.70
2017-06-28T14:30:35.505Z,22.80
2017-06-28T14:33:03.795Z,22.70
2017-06-28T14:35:32.120Z,22.90
2017-06-28T14:38:00.467Z,22.90
2017-06-28T14:40:28.709Z,23.10
2017-06-28T14:42:57.736Z,23.30
2017-06-28T14:45:25.971Z,23.30
2017-06-28T14:47:55.000Z,23.40
2017-06-28T14:50:23.238Z,23.40
2017-06-28T14:52:52.270Z,23.60
2017-06-28T14:55:20.624Z,23.60
2017-06-28T14:57:49.626Z,23.90
2017-06-28T15:00:17.917Z,23.90
2017-06-28T15:02:46.152Z,23.90
2017-06-28T15:05:15.173Z,23.90
2017-06-28T15:07:43.462Z,23.90
2017-06-28T15:10:11.841Z,24.00
2017-06-28T15:12:40.078Z,23.80
2017-06-28T15:15:09.212Z,23.70
2017-06-28T15:17:37.450Z,23.70
2017-06-28T15:20:05.794Z,23.70
2017-06-28T15:22:34.137Z,23.70
2017-06-28T15:25:02.411Z,23.70
2017-06-28T15:27:30.640Z,23.70
2017-06-28T15:29:59.729Z,23.70
2017-06-28T15:32:28.737Z,23.80
2017-06-28T15:34:57.151Z,23.80
2017-06-28T15:37:25.387Z,23.90
2017-06-28T15:39:54.464Z,23.90
2017-06-28T15:42:22.725Z,23.90
2017-06-28T15:44:50.981Z,23.90
2017-06-28T15:47:19.213Z,24.00
2017-06-28T15:49:48.233Z,24.10
2017-06-28T15:52:16.470Z,24.00
2017-06-28T15:54:45.501Z,24.10
2017-06-28T15:57:13.749Z,24.10
2017-06-28T15:59:42.004Z,24.10
2017-06-28T16:02:11.062Z,24.00
2017-06-28T16:04:39.385Z,24.10
2017-06-28T16:07:08.521Z,24.00
2017-06-28T16:09:36.805Z,24.00
2017-06-28T16:12:05.133Z,24.00
2017-06-28T16:14:34.137Z,24.00
2017-06-28T16:17:02.405Z,24.00
2017-06-28T16:19:31.410Z,24.00
2017-06-28T16:21:59.669Z,24.00
2017-06-28T16:24:28.723Z,24.10
2017-06-28T16:26:56.959Z,24.10
2017-06-28T16:29:25.195Z,24.00
2017-06-28T16:31:53.442Z,24.10
2017-06-28T16:34:21.730Z,24.00
2017-06-28T16:36:49.984Z,24.00
2017-06-28T16:39:18.318Z,24.00
2017-06-28T16:41:47.353Z,24.00
2017-06-28T16:44:15.605Z,24.00
2017-06-28T16:46:43.854Z,24.00
2017-06-28T16:49:12.863Z,24.10
2017-06-28T16:51:42.192Z,24.20
2017-06-28T16:54:10.513Z,24.20
2017-06-28T16:56:38.775Z,24.30
2017-06-28T16:59:07.120Z,24.30
2017-06-28T17:01:35.364Z,24.30
2017-06-28T17:04:04.490Z,24.30
2017-06-28T17:06:32.733Z,24.30
2017-06-28T17:09:01.745Z,24.40
2017-06-28T17:11:29.990Z,24.40
2017-06-28T17:13:59.005Z,24.40
2017-06-28T17:16:27.257Z,24.40
2017-06-28T17:18:56.545Z,24.20
2017-06-28T17:21:24.837Z,24.20
2017-06-28T17:23:53.855Z,24.20
2017-06-28T17:26:22.137Z,24.20
2017-06-28T17:28:50.377Z,24.10
2017-06-28T17:31:19.528Z,24.00
2017-06-28T17:33:47.775Z,24.00
2017-06-28T17:36:16.008Z,24.00
2017-06-28T17:38:44.253Z,23.90
2017-06-28T17:41:12.517Z,23.90
2017-06-28T17:43:40.765Z,23.90
2017-06-28T17:46:09.113Z,23.90
2017-06-28T17:48:37.338Z,23.90
2017-06-28T17:51:05.581Z,23.90
2017-06-28T17:53:33.861Z,23.90
2017-06-28T17:56:02.117Z,23.80
2017-06-28T17:58:30.452Z,23.90
2017-06-28T18:00:58.705Z,23.90
2017-06-28T18:03:27.004Z,23.80
2017-06-28T18:05:55.262Z,23.80
2017-06-28T18:08:23.595Z,23.80
2017-06-28T18:10:51.824Z,23.80
2017-06-28T18:13:20.138Z,23.80
2017-06-28T18:15:48.479Z,23.80
2017-06-28T18:18:16.810Z,23.70
2017-06-28T18:20:45.828Z,23.80
2017-06-28T18:23:14.271Z,23.70
2017-06-28T18:25:42.492Z,23.70
2017-06-28T18:28:10.727Z,23.70
2017-06-28T18:30:39.776Z,23.50
2017-06-28T18:33:08.000Z,23.50
2017-06-28T18:35:37.131Z,23.60
2017-06-28T18:38:05.378Z,23.60
2017-06-28T18:40:34.409Z,23.50
2017-06-28T18:43:02.668Z,23.50
2017-06-28T18:45:30.925Z,23.50
2017-06-28T18:47:59.241Z,23.50
2017-06-28T18:50:27.485Z,23.50
2017-06-28T18:52:55.730Z,23.50
2017-06-28T18:55:23.972Z,23.50
2017-06-28T18:57:52.259Z,23.50
2017-06-28T19:00:20.488Z,23.50
2017-06-28T19:02:48.726Z,23.50
2017-06-28T19:05:16.981Z,23.50
2017-06-28T19:07:45.215Z,23.50
2017-06-28T19:10:13.475Z,23.50
2017-06-28T19:12:41.785Z,23.50
2017-06-28T19:15:10.043Z,23.50
2017-06-28T19:17:38.297Z,23.40
2017-06-28T19:20:07.303Z,23.40
2017-06-28T19:22:35.657Z,23.40
2017-06-28T19:25:04.653Z,23.50
2017-06-28T19:27:33.668Z,23.50
2017-06-28T19:30:01.933Z,23.50
2017-06-28T19:32:30.950Z,23.50
2017-06-28T19:34:59.188Z,23.50
2017-06-28T19:37:28.323Z,23.50
2017-06-28T19:39:56.554Z,23.60
2017-06-28T19:42:25.571Z,23.60
2017-06-28T19:44:53.800Z,23.60
2017-06-28T19:47:22.047Z,23.60
2017-06-28T19:49:50.277Z,23.60
2017-06-28T19:52:19.407Z,23.50
2017-06-28T19:54:47.648Z,23.60
2017-06-28T19:57:16.808Z,23.60
2017-06-28T19:59:45.057Z,23.60
2017-06-28T20:02:13.313Z,23.60
2017-06-28T20:04:41.610Z,23.60
2017-06-28T20:07:09.988Z,23.50
2017-06-28T20:09:38.263Z,23.50
2017-06-28T20:12:06.565Z,23.50
2017-06-28T20:14:34.817Z,23.50
2017-06-28T20:17:03.092Z,23.40
2017-06-28T20:19:31.421Z,23.40
2017-06-28T20:22:00.425Z,23.30
2017-06-28T20:24:29.734Z,23.20
2017-06-28T20:26:58.934Z,23.20
2017-06-28T20:29:27.942Z,23.20
2017-06-28T20:31:56.190Z,23.20
2017-06-28T20:34:25.217Z,23.10
2017-06-28T20:36:53.505Z,23.10
2017-06-28T20:39:21.752Z,23.10
2017-06-28T20:41:49.996Z,23.10
2017-06-28T20:44:19.032Z,23.10
2017-06-28T20:46:47.282Z,23.00
2017-06-28T20:49:15.533Z,23.00
2017-06-28T20:51:43.856Z,22.90
2017-06-28T20:54:12.114Z,22.90
2017-06-28T20:56:40.357Z,22.90
2017-06-28T20:59:08.605Z,22.80
2017-06-28T21:01:36.844Z,22.80
2017-06-28T21:04:05.147Z,22.70
2017-06-28T21:06:33.374Z,22.70
2017-06-28T21:09:02.445Z,22.60
2017-06-28T21:11:30.683Z,22.60
2017-06-28T21:13:59.004Z,22.60
2017-06-28T21:16:27.253Z,22.50
2017-06-28T21:18:55.510Z,22.40
2017-06-28T21:21:23.761Z,22.50
2017-06-28T21:23:52.012Z,22.50
2017-06-28T21:26:21.062Z,22.40
2017-06-28T21:28:49.341Z,22.30
2017-06-28T21:31:17.603Z,22.40
2017-06-28T21:33:45.847Z,22.30
2017-06-28T21:36:14.879Z,22.20
2017-06-28T21:38:43.155Z,22.20
2017-06-28T21:41:11.406Z,22.20
2017-06-28T21:43:39.636Z,22.20
2017-06-28T21:46:07.969Z,22.10
2017-06-28T21:48:36.214Z,22.10
2017-06-28T21:51:05.216Z,22.00
2017-06-28T21:53:33.454Z,22.00
2017-06-28T21:56:01.709Z,22.00
2017-06-28T21:58:29.941Z,21.90
2017-06-28T22:00:58.208Z,21.80
2017-06-28T22:03:27.203Z,21.80
2017-06-28T22:05:56.223Z,21.80
2017-06-28T22:08:24.456Z,21.80
2017-06-28T22:10:53.491Z,21.80
2017-06-28T22:13:21.726Z,21.70
2017-06-28T22:15:50.749Z,21.70
2017-06-28T22:18:30.970Z,21.70
2017-06-28T22:20:59.996Z,21.50
2017-06-28T22:23:28.341Z,21.50
2017-06-28T22:25:57.380Z,21.60
2017-06-28T22:28:25.666Z,21.50
2017-06-28T22:30:53.963Z,21.60
2017-06-28T22:33:22.214Z,21.60
2017-06-28T22:35:50.545Z,21.60
2017-06-28T22:38:19.557Z,21.50
2017-06-28T22:40:47.861Z,21.40
2017-06-28T22:43:16.184Z,21.40
2017-06-28T22:45:45.248Z,21.30
2017-06-28T22:48:13.499Z,21.30
2017-06-28T22:50:41.737Z,21.30
2017-06-28T22:53:10.750Z,21.20
2017-06-28T22:55:38.986Z,21.20
2017-06-28T22:58:07.248Z,21.10
2017-06-28T23:00:35.472Z,21.10
2017-06-28T23:03:03.738Z,21.00
2017-06-28T23:05:31.969Z,21.00
2017-06-28T23:08:00.322Z,21.00
2017-06-28T23:10:28.586Z,21.00
2017-06-28T23:12:56.833Z,20.90
2017-06-28T23:15:25.861Z,20.90
2017-06-28T23:17:54.155Z,20.90
2017-06-28T23:20:22.393Z,21.00
2017-06-28T23:22:50.634Z,21.00
2017-06-28T23:25:18.887Z,21.00
2017-06-28T23:27:47.125Z,21.00
2017-06-28T23:30:15.411Z,21.00
2017-06-28T23:32:43.641Z,20.90
2017-06-28T23:35:12.777Z,21.00
2017-06-28T23:37:41.016Z,21.00
2017-06-28T23:40:10.149Z,20.90
2017-06-28T23:42:38.443Z,20.90
2017-06-28T23:45:06.802Z,20.80
2017-06-28T23:47:35.045Z,20.80
2017-06-28T23:50:04.057Z,20.80
2017-06-28T23:52:32.389Z,20.80
2017-06-28T23:55:00.724Z,20.90
2017-06-28T23:57:28.954Z,20.90
2017-06-28T23:59:57.224Z,20.90
